sensor_id;sensor_type;location;lat;lon;timestamp;temperature;humidity
20803;DHT22;10562;-33.856;151.182;2023-07-20T00:00:19;10.60;99.90
20803;DHT22;10562;-33.856;151.182;2023-07-20T00:02:51;10.70;99.90
20803;DHT22;10562;-33.856;151.182;2023-07-20T00:05:22;10.80;99.90
20803;DHT22;10562;-33.856;151.182;2023-07-20T00:07:53;11.00;99.90
20803;DHT22;10562;-33.856;151.182;2023-07-20T00:10:26;11.00;99.90
20803;DHT22;10562;-33.856;151.182;2023-07-20T00:12:57;11.10;99.90
20803;DHT22;10562;-33.856;151.182;2023-07-20T00:15:28;11.30;99.90
20803;DHT22;10562;-33.856;151.182;2023-07-20T00:17:59;11.40;99.90
20803;DHT22;10562;-33.856;151.182;2023-07-20T00:20:29;11.40;99.90
20803;DHT22;10562;-33.856;151.182;2023-07-20T00:23:00;11.50;99.90
20803;DHT22;10562;-33.856;151.182;2023-07-20T00:25:33;11.70;99.90
20803;DHT22;10562;-33.856;151.182;2023-07-20T00:28:05;11.80;99.90
20803;DHT22;10562;-33.856;151.182;2023-07-20T00:30:36;11.90;99.90
20803;DHT22;10562;-33.856;151.182;2023-07-20T00:33:11;12.00;99.90
20803;DHT22;10562;-33.856;151.182;2023-07-20T00:35:42;12.10;99.90
20803;DHT22;10562;-33.856;151.182;2023-07-20T00:38:13;12.20;99.90
20803;DHT22;10562;-33.856;151.182;2023-07-20T00:40:45;12.30;99.90
20803;DHT22;10562;-33.856;151.182;2023-07-20T00:43:17;12.40;99.90
20803;DHT22;10562;-33.856;151.182;2023-07-20T00:45:51;12.60;99.90
20803;DHT22;10562;-33.856;151.182;2023-07-20T00:48:22;12.80;99.90
20803;DHT22;10562;-33.856;151.182;2023-07-20T00:50:52;12.90;99.90
20803;DHT22;10562;-33.856;151.182;2023-07-20T00:53:23;13.10;99.90
20803;DHT22;10562;-33.856;151.182;2023-07-20T00:55:56;13.20;99.90
20803;DHT22;10562;-33.856;151.182;2023-07-20T00:58:27;13.30;99.90
20803;DHT22;10562;-33.856;151.182;2023-07-20T01:00:58;13.50;99.90
20803;DHT22;10562;-33.856;151.182;2023-07-20T01:03:29;13.60;99.90
20803;DHT22;10562;-33.856;151.182;2023-07-20T01:06:06;13.80;99.90
20803;DHT22;10562;-33.856;151.182;2023-07-20T01:08:43;14.00;99.90
20803;DHT22;10562;-33.856;151.182;2023-07-20T01:11:20;14.20;99.90
20803;DHT22;10562;-33.856;151.182;2023-07-20T01:13:54;14.30;99.90
20803;DHT22;10562;-33.856;151.182;2023-07-20T01:16:25;14.40;99.90
20803;DHT22;10562;-33.856;151.182;2023-07-20T01:18:57;14.60;99.90
20803;DHT22;10562;-33.856;151.182;2023-07-20T01:21:33;14.90;99.90
20803;DHT22;10562;-33.856;151.182;2023-07-20T01:27:26;15.10;99.90
20803;DHT22;10562;-33.856;151.182;2023-07-20T01:30:18;15.20;99.90
20803;DHT22;10562;-33.856;151.182;2023-07-20T01:32:58;15.40;99.90
20803;DHT22;10562;-33.856;151.182;2023-07-20T01:35:30;15.60;99.90
20803;DHT22;10562;-33.856;151.182;2023-07-20T01:38:01;15.80;99.90
20803;DHT22;10562;-33.856;151.182;2023-07-20T01:40:32;15.90;99.90
20803;DHT22;10562;-33.856;151.182;2023-07-20T01:43:04;16.00;99.90
20803;DHT22;10562;-33.856;151.182;2023-07-20T01:45:34;16.00;99.90
20803;DHT22;10562;-33.856;151.182;2023-07-20T01:48:07;16.20;99.90
20803;DHT22;10562;-33.856;151.182;2023-07-20T01:50:38;16.30;99.90
20803;DHT22;10562;-33.856;151.182;2023-07-20T01:53:09;16.50;99.90
20803;DHT22;10562;-33.856;151.182;2023-07-20T01:55:40;16.60;99.90
20803;DHT22;10562;-33.856;151.182;2023-07-20T01:58:10;16.60;99.90
20803;DHT22;10562;-33.856;151.182;2023-07-20T02:00:41;16.70;99.90
20803;DHT22;10562;-33.856;151.182;2023-07-20T02:03:14;16.80;99.90
20803;DHT22;10562;-33.856;151.182;2023-07-20T02:05:45;16.70;99.90
20803;DHT22;10562;-33.856;151.182;2023-07-20T02:08:16;16.70;99.90
20803;DHT22;10562;-33.856;151.182;2023-07-20T02:10:47;16.80;99.90
20803;DHT22;10562;-33.856;151.182;2023-07-20T02:13:18;16.90;99.90
20803;DHT22;10562;-33.856;151.182;2023-07-20T02:15:49;16.90;99.90
20803;DHT22;10562;-33.856;151.182;2023-07-20T02:18:22;17.10;99.90
20803;DHT22;10562;-33.856;151.182;2023-07-20T02:20:54;17.10;99.90
20803;DHT22;10562;-33.856;151.182;2023-07-20T02:23:25;17.20;99.90
20803;DHT22;10562;-33.856;151.182;2023-07-20T02:25:56;17.20;99.90
20803;DHT22;10562;-33.856;151.182;2023-07-20T02:28:26;17.20;99.90
20803;DHT22;10562;-33.856;151.182;2023-07-20T02:30:57;17.20;99.90
20803;DHT22;10562;-33.856;151.182;2023-07-20T02:33:30;17.30;99.90
20803;DHT22;10562;-33.856;151.182;2023-07-20T02:36:01;17.30;99.90
20803;DHT22;10562;-33.856;151.182;2023-07-20T02:38:31;17.40;99.90
20803;DHT22;10562;-33.856;151.182;2023-07-20T02:41:02;17.40;99.90
20803;DHT22;10562;-33.856;151.182;2023-07-20T02:43:33;17.50;99.90
20803;DHT22;10562;-33.856;151.182;2023-07-20T02:46:04;17.60;99.90
20803;DHT22;10562;-33.856;151.182;2023-07-20T02:48:37;17.70;99.90
20803;DHT22;10562;-33.856;151.182;2023-07-20T02:51:08;17.70;99.90
20803;DHT22;10562;-33.856;151.182;2023-07-20T02:53:39;17.70;99.90
20803;DHT22;10562;-33.856;151.182;2023-07-20T02:56:09;17.90;99.90
20803;DHT22;10562;-33.856;151.182;2023-07-20T02:58:42;17.90;99.90
20803;DHT22;10562;-33.856;151.182;2023-07-20T03:01:14;18.00;99.90
20803;DHT22;10562;-33.856;151.182;2023-07-20T03:03:46;18.00;99.90
20803;DHT22;10562;-33.856;151.182;2023-07-20T03:06:17;18.10;99.90
20803;DHT22;10562;-33.856;151.182;2023-07-20T03:08:48;18.00;99.90
20803;DHT22;10562;-33.856;151.182;2023-07-20T03:11:20;18.20;99.90
20803;DHT22;10562;-33.856;151.182;2023-07-20T03:13:51;18.20;99.90
20803;DHT22;10562;-33.856;151.182;2023-07-20T03:16:23;18.30;99.90
20803;DHT22;10562;-33.856;151.182;2023-07-20T03:18:56;18.40;99.90
20803;DHT22;10562;-33.856;151.182;2023-07-20T03:21:26;18.40;99.90
20803;DHT22;10562;-33.856;151.182;2023-07-20T03:23:57;18.50;99.90
20803;DHT22;10562;-33.856;151.182;2023-07-20T03:26:28;18.30;99.90
20803;DHT22;10562;-33.856;151.182;2023-07-20T03:28:59;18.40;99.90
20803;DHT22;10562;-33.856;151.182;2023-07-20T03:31:30;18.30;99.90
20803;DHT22;10562;-33.856;151.182;2023-07-20T03:34:02;18.30;99.90
20803;DHT22;10562;-33.856;151.182;2023-07-20T03:36:34;18.30;99.90
20803;DHT22;10562;-33.856;151.182;2023-07-20T03:39:04;18.30;99.90
20803;DHT22;10562;-33.856;151.182;2023-07-20T03:41:35;18.30;99.90
20803;DHT22;10562;-33.856;151.182;2023-07-20T03:44:06;18.40;99.90
20803;DHT22;10562;-33.856;151.182;2023-07-20T03:46:37;18.30;99.90
20803;DHT22;10562;-33.856;151.182;2023-07-20T03:49:10;18.40;99.90
20803;DHT22;10562;-33.856;151.182;2023-07-20T03:51:40;18.40;99.90
20803;DHT22;10562;-33.856;151.182;2023-07-20T03:54:11;18.40;99.90
20803;DHT22;10562;-33.856;151.182;2023-07-20T03:56:42;18.50;99.90
20803;DHT22;10562;-33.856;151.182;2023-07-20T03:59:13;18.50;99.90
20803;DHT22;10562;-33.856;151.182;2023-07-20T04:01:43;18.60;99.90
20803;DHT22;10562;-33.856;151.182;2023-07-20T04:04:17;18.60;99.90
20803;DHT22;10562;-33.856;151.182;2023-07-20T04:06:48;18.60;99.90
20803;DHT22;10562;-33.856;151.182;2023-07-20T04:09:19;18.70;99.90
20803;DHT22;10562;-33.856;151.182;2023-07-20T04:11:49;18.60;99.90
20803;DHT22;10562;-33.856;151.182;2023-07-20T04:14:20;18.60;99.90
20803;DHT22;10562;-33.856;151.182;2023-07-20T04:16:52;18.60;99.90
20803;DHT22;10562;-33.856;151.182;2023-07-20T04:19:24;18.70;99.90
20803;DHT22;10562;-33.856;151.182;2023-07-20T04:21:55;18.80;99.90
20803;DHT22;10562;-33.856;151.182;2023-07-20T04:24:26;18.80;99.90
20803;DHT22;10562;-33.856;151.182;2023-07-20T04:26:57;18.60;99.90
20803;DHT22;10562;-33.856;151.182;2023-07-20T04:29:28;18.50;99.90
20803;DHT22;10562;-33.856;151.182;2023-07-20T04:31:58;18.50;99.90
20803;DHT22;10562;-33.856;151.182;2023-07-20T04:34:31;18.60;99.90
20803;DHT22;10562;-33.856;151.182;2023-07-20T04:37:05;18.50;99.90
20803;DHT22;10562;-33.856;151.182;2023-07-20T04:39:36;18.50;99.90
20803;DHT22;10562;-33.856;151.182;2023-07-20T04:42:07;18.50;99.90
20803;DHT22;10562;-33.856;151.182;2023-07-20T04:44:38;18.60;99.90
20803;DHT22;10562;-33.856;151.182;2023-07-20T04:47:09;18.60;99.90
20803;DHT22;10562;-33.856;151.182;2023-07-20T04:49:41;18.60;99.90
20803;DHT22;10562;-33.856;151.182;2023-07-20T04:52:12;18.50;99.90
20803;DHT22;10562;-33.856;151.182;2023-07-20T04:54:43;18.60;99.90
20803;DHT22;10562;-33.856;151.182;2023-07-20T04:57:14;18.60;99.90
20803;DHT22;10562;-33.856;151.182;2023-07-20T04:59:45;18.60;99.90
20803;DHT22;10562;-33.856;151.182;2023-07-20T05:02:15;18.50;99.90
20803;DHT22;10562;-33.856;151.182;2023-07-20T05:04:48;18.50;99.90
20803;DHT22;10562;-33.856;151.182;2023-07-20T05:07:19;18.50;99.90
20803;DHT22;10562;-33.856;151.182;2023-07-20T05:09:49;18.50;99.90
20803;DHT22;10562;-33.856;151.182;2023-07-20T05:12:20;18.50;99.90
20803;DHT22;10562;-33.856;151.182;2023-07-20T05:14:51;18.50;99.90
20803;DHT22;10562;-33.856;151.182;2023-07-20T05:17:22;18.40;99.90
20803;DHT22;10562;-33.856;151.182;2023-07-20T05:19:55;18.50;99.90
20803;DHT22;10562;-33.856;151.182;2023-07-20T05:22:25;18.50;99.90
20803;DHT22;10562;-33.856;151.182;2023-07-20T05:24:56;18.60;99.90
20803;DHT22;10562;-33.856;151.182;2023-07-20T05:27:27;18.60;99.90
20803;DHT22;10562;-33.856;151.182;2023-07-20T05:29:58;18.50;99.90
20803;DHT22;10562;-33.856;151.182;2023-07-20T05:32:28;18.50;99.90
20803;DHT22;10562;-33.856;151.182;2023-07-20T05:35:01;18.40;99.90
20803;DHT22;10562;-33.856;151.182;2023-07-20T05:37:32;18.30;99.90
20803;DHT22;10562;-33.856;151.182;2023-07-20T05:40:03;18.30;99.90
20803;DHT22;10562;-33.856;151.182;2023-07-20T05:42:34;18.30;99.90
20803;DHT22;10562;-33.856;151.182;2023-07-20T05:45:05;18.20;99.90
20803;DHT22;10562;-33.856;151.182;2023-07-20T05:47:36;18.20;99.90
20803;DHT22;10562;-33.856;151.182;2023-07-20T05:50:10;18.00;99.90
20803;DHT22;10562;-33.856;151.182;2023-07-20T05:52:41;18.00;99.90
20803;DHT22;10562;-33.856;151.182;2023-07-20T05:55:11;18.00;99.90
20803;DHT22;10562;-33.856;151.182;2023-07-20T05:57:42;18.00;99.90
20803;DHT22;10562;-33.856;151.182;2023-07-20T06:00:13;18.00;99.90
20803;DHT22;10562;-33.856;151.182;2023-07-20T06:02:46;17.90;99.90
20803;DHT22;10562;-33.856;151.182;2023-07-20T06:05:19;17.90;99.90
20803;DHT22;10562;-33.856;151.182;2023-07-20T06:07:51;17.90;99.90
20803;DHT22;10562;-33.856;151.182;2023-07-20T06:10:22;17.80;99.90
20803;DHT22;10562;-33.856;151.182;2023-07-20T06:12:53;17.80;99.90
20803;DHT22;10562;-33.856;151.182;2023-07-20T06:15:31;17.70;99.90
20803;DHT22;10562;-33.856;151.182;2023-07-20T06:18:03;17.60;99.90
20803;DHT22;10562;-33.856;151.182;2023-07-20T06:20:35;17.50;99.90
20803;DHT22;10562;-33.856;151.182;2023-07-20T06:23:06;17.50;99.90
20803;DHT22;10562;-33.856;151.182;2023-07-20T06:25:37;17.40;99.90
20803;DHT22;10562;-33.856;151.182;2023-07-20T06:28:08;17.20;99.90
20803;DHT22;10562;-33.856;151.182;2023-07-20T06:30:38;17.20;99.90
20803;DHT22;10562;-33.856;151.182;2023-07-20T06:33:09;17.10;99.90
20803;DHT22;10562;-33.856;151.182;2023-07-20T06:35:42;16.90;99.90
20803;DHT22;10562;-33.856;151.182;2023-07-20T06:38:13;16.90;99.90
20803;DHT22;10562;-33.856;151.182;2023-07-20T06:40:45;16.80;99.90
20803;DHT22;10562;-33.856;151.182;2023-07-20T06:43:16;16.70;99.90
20803;DHT22;10562;-33.856;151.182;2023-07-20T06:45:52;16.50;99.90
20803;DHT22;10562;-33.856;151.182;2023-07-20T06:48:23;16.40;99.90
20803;DHT22;10562;-33.856;151.182;2023-07-20T06:50:55;16.40;99.90
20803;DHT22;10562;-33.856;151.182;2023-07-20T06:53:26;16.30;99.90
20803;DHT22;10562;-33.856;151.182;2023-07-20T06:55:57;16.20;99.90
20803;DHT22;10562;-33.856;151.182;2023-07-20T06:58:28;16.20;99.90
20803;DHT22;10562;-33.856;151.182;2023-07-20T07:00:59;16.10;99.90
20803;DHT22;10562;-33.856;151.182;2023-07-20T07:03:30;16.00;99.90
20803;DHT22;10562;-33.856;151.182;2023-07-20T07:06:03;15.90;99.90
20803;DHT22;10562;-33.856;151.182;2023-07-20T07:08:33;15.70;99.90
20803;DHT22;10562;-33.856;151.182;2023-07-20T07:11:04;15.50;99.90
20803;DHT22;10562;-33.856;151.182;2023-07-20T07:13:35;15.40;99.90
20803;DHT22;10562;-33.856;151.182;2023-07-20T07:16:06;15.20;99.90
20803;DHT22;10562;-33.856;151.182;2023-07-20T07:18:37;15.00;99.90
20803;DHT22;10562;-33.856;151.182;2023-07-20T07:21:11;14.90;99.90
20803;DHT22;10562;-33.856;151.182;2023-07-20T07:23:41;14.80;99.90
20803;DHT22;10562;-33.856;151.182;2023-07-20T07:26:12;14.70;99.90
20803;DHT22;10562;-33.856;151.182;2023-07-20T07:28:43;14.60;99.90
20803;DHT22;10562;-33.856;151.182;2023-07-20T07:31:14;14.50;99.90
20803;DHT22;10562;-33.856;151.182;2023-07-20T07:33:45;14.40;99.90
20803;DHT22;10562;-33.856;151.182;2023-07-20T07:36:17;14.30;99.90
20803;DHT22;10562;-33.856;151.182;2023-07-20T07:38:48;14.20;99.90
20803;DHT22;10562;-33.856;151.182;2023-07-20T07:41:19;14.10;99.90
20803;DHT22;10562;-33.856;151.182;2023-07-20T07:43:50;14.20;99.90
20803;DHT22;10562;-33.856;151.182;2023-07-20T07:46:21;14.10;99.90
20803;DHT22;10562;-33.856;151.182;2023-07-20T07:48:51;14.00;99.90
20803;DHT22;10562;-33.856;151.182;2023-07-20T07:51:24;13.80;99.90
20803;DHT22;10562;-33.856;151.182;2023-07-20T07:53:55;13.60;99.90
20803;DHT22;10562;-33.856;151.182;2023-07-20T07:56:26;13.50;99.90
20803;DHT22;10562;-33.856;151.182;2023-07-20T07:58:57;13.40;99.90
20803;DHT22;10562;-33.856;151.182;2023-07-20T08:01:28;13.30;99.90
20803;DHT22;10562;-33.856;151.182;2023-07-20T08:03:59;13.20;99.90
20803;DHT22;10562;-33.856;151.182;2023-07-20T08:06:33;13.10;99.90
20803;DHT22;10562;-33.856;151.182;2023-07-20T08:09:04;13.00;99.90
20803;DHT22;10562;-33.856;151.182;2023-07-20T08:11:35;13.00;99.90
20803;DHT22;10562;-33.856;151.182;2023-07-20T08:14:06;12.90;99.90
20803;DHT22;10562;-33.856;151.182;2023-07-20T08:16:36;12.90;99.90
20803;DHT22;10562;-33.856;151.182;2023-07-20T08:19:07;12.80;99.90
20803;DHT22;10562;-33.856;151.182;2023-07-20T08:21:40;12.80;99.90
20803;DHT22;10562;-33.856;151.182;2023-07-20T08:24:10;12.70;99.90
20803;DHT22;10562;-33.856;151.182;2023-07-20T08:26:41;12.70;99.90
20803;DHT22;10562;-33.856;151.182;2023-07-20T08:29:12;12.70;99.90
20803;DHT22;10562;-33.856;151.182;2023-07-20T08:31:43;12.60;99.90
20803;DHT22;10562;-33.856;151.182;2023-07-20T08:34:13;12.50;99.90
20803;DHT22;10562;-33.856;151.182;2023-07-20T08:36:46;12.50;99.90
20803;DHT22;10562;-33.856;151.182;2023-07-20T08:39:17;12.40;99.90
20803;DHT22;10562;-33.856;151.182;2023-07-20T08:41:50;12.50;99.90
20803;DHT22;10562;-33.856;151.182;2023-07-20T08:44:21;12.40;99.90
20803;DHT22;10562;-33.856;151.182;2023-07-20T08:46:53;12.40;99.90
20803;DHT22;10562;-33.856;151.182;2023-07-20T08:49:25;12.60;99.90
20803;DHT22;10562;-33.856;151.182;2023-07-20T08:51:59;12.60;99.90
20803;DHT22;10562;-33.856;151.182;2023-07-20T08:54:31;12.50;99.90
20803;DHT22;10562;-33.856;151.182;2023-07-20T08:57:04;12.40;99.90
20803;DHT22;10562;-33.856;151.182;2023-07-20T08:59:37;12.40;99.90
20803;DHT22;10562;-33.856;151.182;2023-07-20T09:02:10;12.30;99.90
20803;DHT22;10562;-33.856;151.182;2023-07-20T09:04:43;12.20;99.90
20803;DHT22;10562;-33.856;151.182;2023-07-20T09:07:17;12.20;99.90
20803;DHT22;10562;-33.856;151.182;2023-07-20T09:09:48;12.10;99.90
20803;DHT22;10562;-33.856;151.182;2023-07-20T09:12:19;12.10;99.90
20803;DHT22;10562;-33.856;151.182;2023-07-20T09:14:49;12.10;99.90
20803;DHT22;10562;-33.856;151.182;2023-07-20T09:17:21;12.10;99.90
20803;DHT22;10562;-33.856;151.182;2023-07-20T09:19:55;12.10;99.90
20803;DHT22;10562;-33.856;151.182;2023-07-20T09:22:34;12.10;99.90
20803;DHT22;10562;-33.856;151.182;2023-07-20T09:25:09;12.00;99.90
20803;DHT22;10562;-33.856;151.182;2023-07-20T09:27:42;12.00;99.90
20803;DHT22;10562;-33.856;151.182;2023-07-20T09:30:13;11.90;99.90
20803;DHT22;10562;-33.856;151.182;2023-07-20T09:32:45;11.90;99.90
20803;DHT22;10562;-33.856;151.182;2023-07-20T09:35:16;11.90;99.90
20803;DHT22;10562;-33.856;151.182;2023-07-20T09:37:51;11.80;99.90
20803;DHT22;10562;-33.856;151.182;2023-07-20T09:40:22;11.70;99.90
20803;DHT22;10562;-33.856;151.182;2023-07-20T09:42:53;11.60;99.90
20803;DHT22;10562;-33.856;151.182;2023-07-20T09:45:30;11.60;99.90
20803;DHT22;10562;-33.856;151.182;2023-07-20T09:48:05;11.50;99.90
20803;DHT22;10562;-33.856;151.182;2023-07-20T09:50:40;11.40;99.90
20803;DHT22;10562;-33.856;151.182;2023-07-20T09:53:15;11.40;99.90
20803;DHT22;10562;-33.856;151.182;2023-07-20T09:55:47;11.30;99.90
20803;DHT22;10562;-33.856;151.182;2023-07-20T09:58:18;11.20;99.90
20803;DHT22;10562;-33.856;151.182;2023-07-20T10:00:52;11.10;99.90
20803;DHT22;10562;-33.856;151.182;2023-07-20T10:03:29;11.00;99.90
20803;DHT22;10562;-33.856;151.182;2023-07-20T10:06:04;11.00;99.90
20803;DHT22;10562;-33.856;151.182;2023-07-20T10:08:40;11.00;99.90
20803;DHT22;10562;-33.856;151.182;2023-07-20T10:11:11;11.00;99.90
20803;DHT22;10562;-33.856;151.182;2023-07-20T10:13:45;10.90;99.90
20803;DHT22;10562;-33.856;151.182;2023-07-20T10:16:22;10.80;99.90
20803;DHT22;10562;-33.856;151.182;2023-07-20T10:19:03;10.80;99.90
20803;DHT22;10562;-33.856;151.182;2023-07-20T10:21:37;10.70;99.90
20803;DHT22;10562;-33.856;151.182;2023-07-20T10:24:13;10.70;99.90
20803;DHT22;10562;-33.856;151.182;2023-07-20T10:26:44;10.80;99.90
20803;DHT22;10562;-33.856;151.182;2023-07-20T10:29:15;10.80;99.90
20803;DHT22;10562;-33.856;151.182;2023-07-20T10:31:47;10.90;99.90
20803;DHT22;10562;-33.856;151.182;2023-07-20T10:34:18;10.90;99.90
20803;DHT22;10562;-33.856;151.182;2023-07-20T10:36:49;11.00;99.90
20803;DHT22;10562;-33.856;151.182;2023-07-20T10:39:27;10.90;99.90
20803;DHT22;10562;-33.856;151.182;2023-07-20T10:42:02;10.90;99.90
20803;DHT22;10562;-33.856;151.182;2023-07-20T10:44:33;10.80;99.90
20803;DHT22;10562;-33.856;151.182;2023-07-20T10:47:08;10.80;99.90
20803;DHT22;10562;-33.856;151.182;2023-07-20T10:50:00;10.90;99.90
20803;DHT22;10562;-33.856;151.182;2023-07-20T10:52:38;10.90;99.90
20803;DHT22;10562;-33.856;151.182;2023-07-20T10:55:15;11.00;99.90
20803;DHT22;10562;-33.856;151.182;2023-07-20T10:58:10;10.90;99.90
20803;DHT22;10562;-33.856;151.182;2023-07-20T11:00:57;10.90;99.90
20803;DHT22;10562;-33.856;151.182;2023-07-20T11:03:32;10.80;99.90
20803;DHT22;10562;-33.856;151.182;2023-07-20T11:06:32;10.80;99.90
20803;DHT22;10562;-33.856;151.182;2023-07-20T11:09:12;10.80;99.90
20803;DHT22;10562;-33.856;151.182;2023-07-20T11:11:46;10.80;99.90
20803;DHT22;10562;-33.856;151.182;2023-07-20T11:14:26;10.80;99.90
20803;DHT22;10562;-33.856;151.182;2023-07-20T11:17:11;10.70;99.90
20803;DHT22;10562;-33.856;151.182;2023-07-20T11:19:43;10.70;99.90
20803;DHT22;10562;-33.856;151.182;2023-07-20T11:22:15;10.70;99.90
20803;DHT22;10562;-33.856;151.182;2023-07-20T11:24:46;10.60;99.90
20803;DHT22;10562;-33.856;151.182;2023-07-20T11:27:23;10.50;99.90
20803;DHT22;10562;-33.856;151.182;2023-07-20T11:29:56;10.50;99.90
20803;DHT22;10562;-33.856;151.182;2023-07-20T11:32:27;10.50;99.90
20803;DHT22;10562;-33.856;151.182;2023-07-20T11:35:00;10.50;99.90
20803;DHT22;10562;-33.856;151.182;2023-07-20T11:37:31;10.50;99.90
20803;DHT22;10562;-33.856;151.182;2023-07-20T11:40:02;10.60;99.90
20803;DHT22;10562;-33.856;151.182;2023-07-20T11:42:37;10.60;99.90
20803;DHT22;10562;-33.856;151.182;2023-07-20T11:45:09;10.50;99.90
20803;DHT22;10562;-33.856;151.182;2023-07-20T11:47:41;10.50;99.90
20803;DHT22;10562;-33.856;151.182;2023-07-20T11:50:12;10.40;99.90
20803;DHT22;10562;-33.856;151.182;2023-07-20T11:52:44;10.50;99.90
20803;DHT22;10562;-33.856;151.182;2023-07-20T11:55:16;10.40;99.90
20803;DHT22;10562;-33.856;151.182;2023-07-20T11:58:03;10.40;99.90
20803;DHT22;10562;-33.856;151.182;2023-07-20T12:00:35;10.40;99.90
20803;DHT22;10562;-33.856;151.182;2023-07-20T12:03:07;10.50;99.90
20803;DHT22;10562;-33.856;151.182;2023-07-20T12:05:39;10.50;99.90
20803;DHT22;10562;-33.856;151.182;2023-07-20T12:08:09;10.50;99.90
20803;DHT22;10562;-33.856;151.182;2023-07-20T12:10:41;10.50;99.90
20803;DHT22;10562;-33.856;151.182;2023-07-20T12:13:14;10.50;99.90
20803;DHT22;10562;-33.856;151.182;2023-07-20T12:15:45;10.50;99.90
20803;DHT22;10562;-33.856;151.182;2023-07-20T12:18:16;10.60;99.90
20803;DHT22;10562;-33.856;151.182;2023-07-20T12:20:47;10.60;99.90
20803;DHT22;10562;-33.856;151.182;2023-07-20T12:23:18;10.60;99.90
20803;DHT22;10562;-33.856;151.182;2023-07-20T12:25:49;10.60;99.90
20803;DHT22;10562;-33.856;151.182;2023-07-20T12:28:21;10.60;99.90
20803;DHT22;10562;-33.856;151.182;2023-07-20T12:30:53;10.60;99.90
20803;DHT22;10562;-33.856;151.182;2023-07-20T12:33:26;10.60;99.90
20803;DHT22;10562;-33.856;151.182;2023-07-20T12:35:56;10.70;99.90
20803;DHT22;10562;-33.856;151.182;2023-07-20T12:38:27;10.80;99.90
20803;DHT22;10562;-33.856;151.182;2023-07-20T12:40:59;10.70;99.90
20803;DHT22;10562;-33.856;151.182;2023-07-20T12:43:32;10.70;99.90
20803;DHT22;10562;-33.856;151.182;2023-07-20T12:46:03;10.60;99.90
20803;DHT22;10562;-33.856;151.182;2023-07-20T12:48:34;10.60;99.90
20803;DHT22;10562;-33.856;151.182;2023-07-20T12:51:04;10.60;99.90
20803;DHT22;10562;-33.856;151.182;2023-07-20T12:53:35;10.50;99.90
20803;DHT22;10562;-33.856;151.182;2023-07-20T12:56:06;10.50;99.90
20803;DHT22;10562;-33.856;151.182;2023-07-20T12:58:39;10.50;99.90
20803;DHT22;10562;-33.856;151.182;2023-07-20T13:01:10;10.40;99.90
20803;DHT22;10562;-33.856;151.182;2023-07-20T13:03:40;10.40;99.90
20803;DHT22;10562;-33.856;151.182;2023-07-20T13:06:11;10.30;99.90
20803;DHT22;10562;-33.856;151.182;2023-07-20T13:08:42;10.30;99.90
20803;DHT22;10562;-33.856;151.182;2023-07-20T13:11:13;10.40;99.90
20803;DHT22;10562;-33.856;151.182;2023-07-20T13:13:45;10.40;99.90
20803;DHT22;10562;-33.856;151.182;2023-07-20T13:16:16;10.40;99.90
20803;DHT22;10562;-33.856;151.182;2023-07-20T13:18:47;10.30;99.90
20803;DHT22;10562;-33.856;151.182;2023-07-20T13:21:18;10.30;99.90
20803;DHT22;10562;-33.856;151.182;2023-07-20T13:23:50;10.30;99.90
20803;DHT22;10562;-33.856;151.182;2023-07-20T13:26:21;10.20;99.90
20803;DHT22;10562;-33.856;151.182;2023-07-20T13:28:54;10.10;99.90
20803;DHT22;10562;-33.856;151.182;2023-07-20T13:31:25;10.00;99.90
20803;DHT22;10562;-33.856;151.182;2023-07-20T13:33:56;9.90;99.90
20803;DHT22;10562;-33.856;151.182;2023-07-20T13:36:27;9.90;99.90
20803;DHT22;10562;-33.856;151.182;2023-07-20T13:38:58;9.80;99.90
20803;DHT22;10562;-33.856;151.182;2023-07-20T13:41:29;9.70;99.90
20803;DHT22;10562;-33.856;151.182;2023-07-20T13:44:02;9.70;99.90
20803;DHT22;10562;-33.856;151.182;2023-07-20T13:46:33;9.70;99.90
20803;DHT22;10562;-33.856;151.182;2023-07-20T13:49:04;9.60;99.90
20803;DHT22;10562;-33.856;151.182;2023-07-20T13:51:34;9.60;99.90
20803;DHT22;10562;-33.856;151.182;2023-07-20T13:54:06;9.50;99.90
20803;DHT22;10562;-33.856;151.182;2023-07-20T13:56:38;9.50;99.90
20803;DHT22;10562;-33.856;151.182;2023-07-20T13:59:10;9.50;99.90
20803;DHT22;10562;-33.856;151.182;2023-07-20T14:01:41;9.50;99.90
20803;DHT22;10562;-33.856;151.182;2023-07-20T14:04:12;9.40;99.90
20803;DHT22;10562;-33.856;151.182;2023-07-20T14:06:44;9.40;99.90
20803;DHT22;10562;-33.856;151.182;2023-07-20T14:09:15;9.40;99.90
20803;DHT22;10562;-33.856;151.182;2023-07-20T14:11:45;9.30;99.90
20803;DHT22;10562;-33.856;151.182;2023-07-20T14:14:18;9.30;99.90
20803;DHT22;10562;-33.856;151.182;2023-07-20T14:16:49;9.30;99.90
20803;DHT22;10562;-33.856;151.182;2023-07-20T14:19:20;9.30;99.90
20803;DHT22;10562;-33.856;151.182;2023-07-20T14:21:50;9.30;99.90
20803;DHT22;10562;-33.856;151.182;2023-07-20T14:24:22;9.20;99.90
20803;DHT22;10562;-33.856;151.182;2023-07-20T14:26:53;9.20;99.90
20803;DHT22;10562;-33.856;151.182;2023-07-20T14:29:26;9.20;99.90
20803;DHT22;10562;-33.856;151.182;2023-07-20T14:31:59;9.20;99.90
20803;DHT22;10562;-33.856;151.182;2023-07-20T14:34:31;9.20;99.90
20803;DHT22;10562;-33.856;151.182;2023-07-20T14:37:02;9.10;99.90
20803;DHT22;10562;-33.856;151.182;2023-07-20T14:39:32;9.10;99.90
20803;DHT22;10562;-33.856;151.182;2023-07-20T14:42:03;9.10;99.90
20803;DHT22;10562;-33.856;151.182;2023-07-20T14:44:36;9.10;99.90
20803;DHT22;10562;-33.856;151.182;2023-07-20T14:47:07;9.10;99.90
20803;DHT22;10562;-33.856;151.182;2023-07-20T14:49:41;9.10;99.90
20803;DHT22;10562;-33.856;151.182;2023-07-20T14:52:12;9.20;99.90
20803;DHT22;10562;-33.856;151.182;2023-07-20T14:54:42;9.10;99.90
20803;DHT22;10562;-33.856;151.182;2023-07-20T14:57:13;9.00;99.90
20803;DHT22;10562;-33.856;151.182;2023-07-20T14:59:46;9.00;99.90
20803;DHT22;10562;-33.856;151.182;2023-07-20T15:02:17;9.00;99.90
20803;DHT22;10562;-33.856;151.182;2023-07-20T15:04:48;9.00;99.90
20803;DHT22;10562;-33.856;151.182;2023-07-20T15:07:20;9.00;99.90
20803;DHT22;10562;-33.856;151.182;2023-07-20T15:09:51;9.00;99.90
20803;DHT22;10562;-33.856;151.182;2023-07-20T15:12:23;9.10;99.90
20803;DHT22;10562;-33.856;151.182;2023-07-20T15:15:06;9.20;99.90
20803;DHT22;10562;-33.856;151.182;2023-07-20T15:17:38;9.20;99.90
20803;DHT22;10562;-33.856;151.182;2023-07-20T15:20:10;9.40;99.90
20803;DHT22;10562;-33.856;151.182;2023-07-20T15:22:41;9.50;99.90